Time;durP1;ratioP1;P1;durP2;ratioP2;P2;SDS_P1;SDS_P2;PMS_P1;PMS_P2;Temp;Humidity;BMP_temperature;BMP_pressure;BME280_temperature;BME280_humidity;BME280_pressure;Samples;Min_cycle;Max_cycle;Signal;HPM_P1;HPM_P2
2023/01/20 00:01:54;;;;;;;12.18;5.70;;;;;;;;;;5019087;28;20033;-83
2023/01/20 00:04:20;;;;;;;13.43;6.00;;;;;;;;;;5018672;28;20041;-83
2023/01/20 00:06:45;;;;;;;10.32;5.55;;;;;;;;;;5001228;28;20022;-82
2023/01/20 00:09:15;;;;;;;8.93;4.82;;;;;;;;;;5000835;28;20030;-82
2023/01/20 00:11:40;;;;;;;12.20;5.82;;;;;;;;;;5019030;28;20053;-83
2023/01/20 00:14:05;;;;;;;7.97;4.85;;;;;;;;;;5018855;28;20029;-82
2023/01/20 00:16:31;;;;;;;11.23;5.85;;;;;;;;;;5018656;28;20036;-82
2023/01/20 00:18:56;;;;;;;10.27;5.70;;;;;;;;;;5017939;28;20022;-81
2023/01/20 00:21:22;;;;;;;10.45;5.68;;;;;;;;;;5017883;28;20146;-82
2023/01/20 00:23:48;;;;;;;11.73;5.85;;;;;;;;;;5017862;28;20038;-81
2023/01/20 00:26:16;;;;;;;12.10;5.47;;;;;;;;;;5018754;28;20482;-82
2023/01/20 00:28:43;;;;;;;9.90;5.38;;;;;;;;;;5022006;28;20525;-83
2023/01/20 00:31:16;;;;;;;11.10;5.93;;;;;;;;;;5021989;28;20037;-82
2023/01/20 00:33:42;;;;;;;10.43;5.35;;;;;;;;;;5004624;28;20030;-82
2023/01/20 00:36:09;;;;;;;9.38;5.55;;;;;;;;;;5021879;28;20094;-84
2023/01/20 00:38:34;;;;;;;8.82;5.35;;;;;;;;;;5022129;28;20022;-84
2023/01/20 00:40:59;;;;;;;10.55;5.93;;;;;;;;;;5021587;28;20391;-82
2023/01/20 00:43:25;;;;;;;9.30;5.28;;;;;;;;;;5021542;28;20394;-82
2023/01/20 00:45:50;;;;;;;11.27;5.47;;;;;;;;;;5020844;28;20499;-83
2023/01/20 00:48:15;;;;;;;10.63;6.15;;;;;;;;;;5021514;28;20439;-83
2023/01/20 00:50:41;;;;;;;10.82;5.38;;;;;;;;;;5020944;28;20021;-83
2023/01/20 00:53:07;;;;;;;9.70;5.57;;;;;;;;;;5003891;28;20022;-82
2023/01/20 00:55:32;;;;;;;10.27;5.38;;;;;;;;;;5004201;28;20038;-83
2023/01/20 00:57:57;;;;;;;13.43;6.20;;;;;;;;;;5021462;28;20069;-82
2023/01/20 01:00:22;;;;;;;9.88;5.68;;;;;;;;;;5003709;28;20483;-82
2023/01/20 01:02:48;;;;;;;8.82;5.30;;;;;;;;;;5003237;28;20037;-82
2023/01/20 01:05:13;;;;;;;13.50;5.70;;;;;;;;;;5022124;28;20080;-83
2023/01/20 01:07:38;;;;;;;10.82;5.85;;;;;;;;;;5021614;28;20029;-83
2023/01/20 01:10:04;;;;;;;12.35;6.43;;;;;;;;;;5021117;28;20113;-83
2023/01/20 01:12:29;;;;;;;9.38;5.35;;;;;;;;;;5021490;28;20026;-82
2023/01/20 01:14:55;;;;;;;11.63;5.60;;;;;;;;;;5021009;28;20018;-83
2023/01/20 01:17:22;;;;;;;12.35;6.00;;;;;;;;;;5021103;28;20044;-82
2023/01/20 01:19:48;;;;;;;10.80;5.72;;;;;;;;;;5020605;28;20049;-81
2023/01/20 01:22:13;;;;;;;12.23;5.75;;;;;;;;;;5020861;28;20037;-82
2023/01/20 01:24:38;;;;;;;9.15;5.63;;;;;;;;;;5021089;28;20025;-82
2023/01/20 01:27:03;;;;;;;9.50;5.43;;;;;;;;;;5020922;28;20030;-81
2023/01/20 01:29:28;;;;;;;14.73;5.68;;;;;;;;;;5021228;28;20076;-82
2023/01/20 01:31:54;;;;;;;10.35;5.38;;;;;;;;;;5020999;28;20052;-83
2023/01/20 01:34:19;;;;;;;10.50;5.50;;;;;;;;;;5021202;28;20022;-83
2023/01/20 01:36:44;;;;;;;11.60;5.78;;;;;;;;;;5003139;28;20048;-83
2023/01/20 01:39:09;;;;;;;14.02;6.35;;;;;;;;;;5020517;28;20113;-81
2023/01/20 01:41:35;;;;;;;10.98;5.68;;;;;;;;;;5020810;28;20092;-82
2023/01/20 01:44:09;;;;;;;11.00;5.75;;;;;;;;;;5003180;28;20026;-81
2023/01/20 01:46:35;;;;;;;11.00;5.45;;;;;;;;;;5020558;28;20061;-82
2023/01/20 01:49:06;;;;;;;10.95;6.07;;;;;;;;;;5019546;28;20026;-82
2023/01/20 01:51:40;;;;;;;9.48;5.40;;;;;;;;;;5020251;28;20030;-83
2023/01/20 01:54:11;;;;;;;;;;;;;;;;;;5020628;28;20105;-82
2023/01/20 01:56:38;;;;;;;14.13;5.45;;;;;;;;;;5019303;28;19909;-81
2023/01/20 01:59:03;;;;;;;11.18;5.00;;;;;;;;;;5018423;28;20033;-80
2023/01/20 02:01:31;;;;;;;10.38;5.60;;;;;;;;;;5021070;28;20022;-83
2023/01/20 02:04:08;;;;;;;10.20;5.53;;;;;;;;;;5021355;28;20032;-84
2023/01/20 02:06:39;;;;;;;11.02;5.55;;;;;;;;;;5021276;28;20022;-83
2023/01/20 02:09:05;;;;;;;10.20;5.95;;;;;;;;;;5004059;28;20028;-81
2023/01/20 02:11:35;;;;;;;10.80;6.00;;;;;;;;;;5004589;28;20029;-81
2023/01/20 02:14:00;;;;;;;9.75;5.63;;;;;;;;;;5022083;28;20018;-82
2023/01/20 02:16:37;;;;;;;10.27;5.70;;;;;;;;;;5021559;28;20022;-83
2023/01/20 02:19:17;;;;;;;9.45;5.22;;;;;;;;;;5019472;28;20156;-82
2023/01/20 02:22:04;;;;;;;8.30;5.28;;;;;;;;;;5018703;28;20026;-82
2023/01/20 02:24:58;;;;;;;9.52;5.28;;;;;;;;;;5002839;28;20516;-81
2023/01/20 02:28:03;;;;;;;10.98;5.22;;;;;;;;;;5001590;28;20030;-82
2023/01/20 02:31:11;;;;;;;8.52;5.10;;;;;;;;;;5019463;28;20022;-81
2023/01/20 02:33:58;;;;;;;9.43;5.45;;;;;;;;;;5019574;28;20057;-82
2023/01/20 02:36:47;;;;;;;12.32;6.28;;;;;;;;;;5003045;28;20032;-82
2023/01/20 02:39:32;;;;;;;9.60;5.47;;;;;;;;;;5020114;28;20077;-81
2023/01/20 02:42:11;;;;;;;9.07;5.30;;;;;;;;;;5019267;28;20025;-81
2023/01/20 02:44:54;;;;;;;9.43;5.38;;;;;;;;;;5018541;28;20053;-82
2023/01/20 02:47:29;;;;;;;12.75;6.25;;;;;;;;;;5018548;28;20036;-82
2023/01/20 02:50:01;;;;;;;11.50;5.90;;;;;;;;;;5018469;28;20026;-82
2023/01/20 02:52:31;;;;;;;13.25;6.18;;;;;;;;;;5019303;28;20108;-82
2023/01/20 02:55:02;;;;;;;12.15;6.07;;;;;;;;;;5019837;28;20018;-82
2023/01/20 02:57:31;;;;;;;9.50;6.00;;;;;;;;;;5026670;28;20037;-82
2023/01/20 03:00:03;;;;;;;10.82;5.85;;;;;;;;;;5037588;28;20016;-83
2023/01/20 03:02:32;;;;;;;17.15;5.88;;;;;;;;;;5020333;28;20033;-82
2023/01/20 03:05:05;;;;;;;11.38;6.18;;;;;;;;;;5038107;28;20014;-82
2023/01/20 03:07:34;;;;;;;10.77;5.90;;;;;;;;;;5038881;28;20582;-80
2023/01/20 03:10:04;;;;;;;10.85;6.03;;;;;;;;;;5039365;28;20061;-83
2023/01/20 03:12:36;;;;;;;11.20;5.95;;;;;;;;;;5037364;28;20093;-80
2023/01/20 03:15:02;;;;;;;11.13;6.43;;;;;;;;;;5038648;28;20021;-82
2023/01/20 03:17:27;;;;;;;11.30;6.07;;;;;;;;;;5037662;28;20077;-81
2023/01/20 03:19:53;;;;;;;11.82;6.13;;;;;;;;;;5020614;28;20045;-82
2023/01/20 03:22:19;;;;;;;11.13;6.47;;;;;;;;;;5039180;28;20010;-82
2023/01/20 03:24:46;;;;;;;10.82;6.50;;;;;;;;;;5022462;28;20078;-81
2023/01/20 03:27:12;;;;;;;12.68;6.60;;;;;;;;;;5036798;28;20018;-82
2023/01/20 03:29:37;;;;;;;12.32;6.55;;;;;;;;;;5038723;28;20029;-81
2023/01/20 03:32:06;;;;;;;12.77;6.75;;;;;;;;;;5038248;28;20030;-83
2023/01/20 03:34:34;;;;;;;11.93;6.78;;;;;;;;;;5021651;28;20018;-81
2023/01/20 03:36:59;;;;;;;13.65;7.03;;;;;;;;;;5039190;28;20114;-81
2023/01/20 03:39:26;;;;;;;15.00;7.07;;;;;;;;;;5006411;28;20029;-80
2023/01/20 03:42:06;;;;;;;14.15;7.20;;;;;;;;;;5016823;28;20112;-82
2023/01/20 03:45:03;;;;;;;14.15;7.30;;;;;;;;;;5017696;28;20072;-82
2023/01/20 03:47:46;;;;;;;12.32;6.70;;;;;;;;;;4999969;28;20108;-82
2023/01/20 03:50:49;;;;;;;14.67;6.77;;;;;;;;;;5016674;28;20045;-82
2023/01/20 03:53:40;;;;;;;12.57;7.10;;;;;;;;;;5017534;28;20258;-83
2023/01/20 03:56:18;;;;;;;10.77;5.90;;;;;;;;;;5017426;28;20044;-81
2023/01/20 03:58:48;;;;;;;15.68;6.63;;;;;;;;;;5017419;28;20030;-81
2023/01/20 04:01:15;;;;;;;13.68;7.25;;;;;;;;;;5016865;28;20033;-81
2023/01/20 04:03:44;;;;;;;12.07;6.80;;;;;;;;;;5016962;28;20036;-82
2023/01/20 04:06:12;;;;;;;11.65;6.85;;;;;;;;;;5016418;28;20033;-82
2023/01/20 04:08:42;;;;;;;12.02;7.30;;;;;;;;;;4998468;28;20036;-82
2023/01/20 04:11:08;;;;;;;14.02;7.45;;;;;;;;;;5016248;28;20025;-81
2023/01/20 04:13:34;;;;;;;15.27;7.60;;;;;;;;;;4998593;28;20442;-81
2023/01/20 04:16:01;;;;;;;15.77;7.72;;;;;;;;;;5016146;28;20045;-82
2023/01/20 04:18:27;;;;;;;18.25;7.88;;;;;;;;;;5016196;28;20029;-82
2023/01/20 04:20:57;;;;;;;14.32;8.82;;;;;;;;;;5016195;28;20107;-81
2023/01/20 04:23:31;;;;;;;15.50;8.13;;;;;;;;;;5016170;28;20030;-81
2023/01/20 04:25:56;;;;;;;;;;;;;;;;;;5016428;28;20033;-81
2023/01/20 04:28:21;;;;;;;13.93;7.22;;;;;;;;;;4998085;28;19917;-81
2023/01/20 04:30:47;;;;;;;12.35;7.85;;;;;;;;;;4998509;28;20032;-82
2023/01/20 04:33:12;;;;;;;13.07;7.95;;;;;;;;;;5016439;28;20112;-81
2023/01/20 04:35:40;;;;;;;13.45;8.30;;;;;;;;;;5017304;28;20022;-83
2023/01/20 04:38:05;;;;;;;14.68;7.78;;;;;;;;;;5016154;28;20022;-81
2023/01/20 04:40:31;;;;;;;16.02;8.98;;;;;;;;;;5016843;28;20030;-82
2023/01/20 04:42:56;;;;;;;20.30;8.93;;;;;;;;;;5016026;28;20052;-81
2023/01/20 04:45:21;;;;;;;32.13;14.88;;;;;;;;;;5016239;28;20076;-81
2023/01/20 04:47:47;;;;;;;25.80;13.65;;;;;;;;;;5016523;28;20057;-81
2023/01/20 04:50:14;;;;;;;22.42;12.55;;;;;;;;;;5016278;28;20036;-82
2023/01/20 04:52:39;;;;;;;24.45;14.25;;;;;;;;;;5015966;28;20022;-81
2023/01/20 04:55:05;;;;;;;22.23;13.25;;;;;;;;;;5017475;28;20060;-82
2023/01/20 04:57:30;;;;;;;24.73;12.73;;;;;;;;;;5016927;28;20038;-82
2023/01/20 04:59:55;;;;;;;18.67;11.73;;;;;;;;;;5016871;28;20161;-82
2023/01/20 05:02:20;;;;;;;18.95;9.10;;;;;;;;;;5016776;28;20046;-82
2023/01/20 05:04:46;;;;;;;15.63;8.70;;;;;;;;;;5016673;28;20025;-82
2023/01/20 05:07:11;;;;;;;14.70;8.13;;;;;;;;;;5016574;28;20053;-82
2023/01/20 05:09:36;;;;;;;12.77;8.20;;;;;;;;;;5015938;28;20026;-81
2023/01/20 05:12:02;;;;;;;15.02;8.48;;;;;;;;;;5016483;28;20076;-82
2023/01/20 05:14:27;;;;;;;16.40;8.80;;;;;;;;;;5019637;28;20494;-82
2023/01/20 05:16:52;;;;;;;19.35;8.90;;;;;;;;;;5019002;28;20053;-81
2023/01/20 05:19:17;;;;;;;14.38;8.75;;;;;;;;;;5000517;28;20024;-82
2023/01/20 05:21:42;;;;;;;14.93;8.45;;;;;;;;;;5001355;28;20034;-81
2023/01/20 05:24:08;;;;;;;17.05;9.35;;;;;;;;;;5001397;28;20037;-81
2023/01/20 05:26:34;;;;;;;16.10;8.98;;;;;;;;;;5019994;28;20057;-82
2023/01/20 05:28:59;;;;;;;20.77;10.15;;;;;;;;;;5020364;28;20030;-81
2023/01/20 05:31:25;;;;;;;19.17;9.95;;;;;;;;;;5020203;28;20029;-82
2023/01/20 05:33:50;;;;;;;21.13;10.73;;;;;;;;;;5019525;28;20561;-83
2023/01/20 05:36:15;;;;;;;16.70;9.50;;;;;;;;;;5019301;28;20022;-82
2023/01/20 05:38:40;;;;;;;19.38;10.15;;;;;;;;;;5001226;28;20494;-82
2023/01/20 05:41:08;;;;;;;19.70;10.20;;;;;;;;;;5019164;28;20477;-83
2023/01/20 05:43:34;;;;;;;18.10;10.95;;;;;;;;;;5001339;28;20033;-83
2023/01/20 05:45:59;;;;;;;21.60;11.40;;;;;;;;;;5019492;28;20490;-80
2023/01/20 05:48:25;;;;;;;21.17;11.73;;;;;;;;;;5018688;28;20025;-79
2023/01/20 05:50:50;;;;;;;22.02;11.07;;;;;;;;;;5018665;28;20556;-83
2023/01/20 05:53:16;;;;;;;19.80;10.23;;;;;;;;;;5000926;28;20033;-82
2023/01/20 05:55:42;;;;;;;20.52;10.32;;;;;;;;;;5001375;28;20121;-82
2023/01/20 05:58:07;;;;;;;22.30;11.65;;;;;;;;;;5000582;28;20053;-82
2023/01/20 06:00:33;;;;;;;29.17;12.90;;;;;;;;;;5019193;28;20092;-82
2023/01/20 06:02:58;;;;;;;29.27;13.23;;;;;;;;;;5000865;28;20026;-82
2023/01/20 06:05:24;;;;;;;31.67;14.27;;;;;;;;;;5018575;28;20373;-80
2023/01/20 06:07:49;;;;;;;28.80;13.32;;;;;;;;;;5018415;28;20038;-82
2023/01/20 06:10:15;;;;;;;22.58;11.40;;;;;;;;;;5000507;28;20116;-83
2023/01/20 06:12:41;;;;;;;26.60;12.00;;;;;;;;;;5018490;28;20061;-80
2023/01/20 06:15:06;;;;;;;19.35;10.80;;;;;;;;;;5017626;28;20406;-83
2023/01/20 06:17:32;;;;;;;23.92;11.35;;;;;;;;;;5018853;28;20372;-83
2023/01/20 06:19:57;;;;;;;23.48;11.57;;;;;;;;;;5002401;28;20487;-83
2023/01/20 06:22:22;;;;;;;21.23;10.05;;;;;;;;;;5019127;28;20080;-82
2023/01/20 06:24:48;;;;;;;21.13;11.30;;;;;;;;;;5018147;28;20034;-82
2023/01/20 06:27:13;;;;;;;19.17;10.75;;;;;;;;;;5001089;28;20494;-83
2023/01/20 06:29:38;;;;;;;19.27;10.50;;;;;;;;;;5018899;28;20076;-81
2023/01/20 06:32:04;;;;;;;21.83;10.95;;;;;;;;;;5001320;28;20025;-83
2023/01/20 06:34:30;;;;;;;21.58;10.93;;;;;;;;;;5018838;28;20021;-82
2023/01/20 06:36:56;;;;;;;22.30;11.13;;;;;;;;;;5018727;28;20112;-82
2023/01/20 06:39:21;;;;;;;21.65;11.95;;;;;;;;;;5018529;28;20081;-83
2023/01/20 06:41:46;;;;;;;22.98;11.48;;;;;;;;;;5018693;28;20026;-82
2023/01/20 06:44:12;;;;;;;22.83;11.38;;;;;;;;;;5018861;28;20081;-83
2023/01/20 06:46:37;;;;;;;20.30;11.32;;;;;;;;;;5018182;28;20029;-82
2023/01/20 06:49:02;;;;;;;24.70;12.77;;;;;;;;;;5018842;28;20117;-83
2023/01/20 06:51:29;;;;;;;21.23;10.00;;;;;;;;;;5000666;28;20037;-81
2023/01/20 06:53:55;;;;;;;20.90;10.73;;;;;;;;;;5018807;28;20034;-82
2023/01/20 06:56:21;;;;;;;24.23;11.43;;;;;;;;;;5018543;28;20057;-82
2023/01/20 06:58:46;;;;;;;23.95;11.80;;;;;;;;;;5018547;28;20049;-81
2023/01/20 07:01:14;;;;;;;19.52;10.93;;;;;;;;;;5000125;28;20390;-82
2023/01/20 07:03:42;;;;;;;26.55;12.00;;;;;;;;;;5017331;28;20033;-84
2023/01/20 07:06:23;;;;;;;24.75;12.13;;;;;;;;;;5018280;28;20038;-83
2023/01/20 07:08:48;;;;;;;23.13;11.15;;;;;;;;;;5017928;28;20084;-82
2023/01/20 07:11:13;;;;;;;20.35;10.95;;;;;;;;;;5017767;28;20017;-83
2023/01/20 07:13:39;;;;;;;25.50;11.13;;;;;;;;;;5017699;28;20053;-82
2023/01/20 07:16:04;;;;;;;21.15;10.65;;;;;;;;;;5000858;28;20033;-83
2023/01/20 07:18:29;;;;;;;22.33;11.50;;;;;;;;;;5018027;28;20029;-81
2023/01/20 07:20:55;;;;;;;23.25;11.52;;;;;;;;;;5017402;28;20037;-81
2023/01/20 07:23:21;;;;;;;19.90;11.23;;;;;;;;;;5000015;28;20025;-82
2023/01/20 07:25:47;;;;;;;22.13;11.43;;;;;;;;;;5017838;28;20061;-82
2023/01/20 07:28:12;;;;;;;20.55;11.43;;;;;;;;;;5017684;28;20033;-82
2023/01/20 07:30:37;;;;;;;30.40;11.63;;;;;;;;;;5000665;28;20029;-82
2023/01/20 07:33:04;;;;;;;20.77;11.07;;;;;;;;;;5021100;28;20030;-81
2023/01/20 07:35:30;;;;;;;20.67;11.18;;;;;;;;;;5021856;28;20030;-82
2023/01/20 07:37:55;;;;;;;23.02;12.15;;;;;;;;;;5021888;28;20021;-82
2023/01/20 07:40:20;;;;;;;22.40;11.10;;;;;;;;;;5022009;28;20033;-81
2023/01/20 07:42:45;;;;;;;23.55;11.00;;;;;;;;;;5022657;28;20053;-82
2023/01/20 07:45:11;;;;;;;20.55;11.02;;;;;;;;;;5004843;28;20029;-83
2023/01/20 07:47:36;;;;;;;21.95;11.52;;;;;;;;;;5005057;28;20025;-84
2023/01/20 07:50:01;;;;;;;21.33;11.95;;;;;;;;;;5022421;28;20037;-83
2023/01/20 07:52:27;;;;;;;21.58;11.68;;;;;;;;;;5007377;28;20034;-83
2023/01/20 07:54:55;;;;;;;24.08;12.07;;;;;;;;;;5026023;28;20021;-85
2023/01/20 07:57:20;;;;;;;23.40;11.38;;;;;;;;;;5026743;28;20026;-84
2023/01/20 07:59:45;;;;;;;20.35;10.75;;;;;;;;;;5027529;28;20033;-84
2023/01/20 08:02:10;;;;;;;21.17;11.65;;;;;;;;;;5011563;28;20053;-83
2023/01/20 08:04:36;;;;;;;21.48;10.65;;;;;;;;;;5028380;28;20022;-84
2023/01/20 08:07:02;;;;;;;21.63;11.63;;;;;;;;;;5010780;28;20036;-84
2023/01/20 08:09:27;;;;;;;22.15;12.27;;;;;;;;;;5026332;28;20456;-84
2023/01/20 08:11:52;;;;;;;26.88;12.43;;;;;;;;;;5026188;28;20030;-83
2023/01/20 08:14:18;;;;;;;21.38;12.10;;;;;;;;;;5020210;28;20042;-84
2023/01/20 08:16:43;;;;;;;24.30;12.68;;;;;;;;;;5019427;28;20108;-83
2023/01/20 08:19:08;;;;;;;21.63;11.68;;;;;;;;;;5019603;28;20046;-82
2023/01/20 08:21:33;;;;;;;24.55;12.23;;;;;;;;;;5018904;28;20056;-81
2023/01/20 08:24:01;;;;;;;21.55;11.13;;;;;;;;;;4999533;28;20041;-83
2023/01/20 08:26:28;;;;;;;18.92;10.90;;;;;;;;;;5018798;28;20131;-82
2023/01/20 08:28:54;;;;;;;21.02;10.77;;;;;;;;;;5000278;28;20029;-84
2023/01/20 08:31:21;;;;;;;21.83;10.48;;;;;;;;;;5000171;28;20030;-84
2023/01/20 08:33:47;;;;;;;21.33;10.98;;;;;;;;;;5000955;28;20037;-83
2023/01/20 08:36:18;;;;;;;25.42;10.68;;;;;;;;;;5018192;28;20018;-84
2023/01/20 08:38:44;;;;;;;18.70;10.32;;;;;;;;;;5018267;28;20034;-83
2023/01/20 08:41:14;;;;;;;21.17;10.60;;;;;;;;;;5017072;28;20038;-83
2023/01/20 08:43:39;;;;;;;23.85;11.30;;;;;;;;;;5017256;28;20061;-83
2023/01/20 08:46:08;;;;;;;23.77;11.18;;;;;;;;;;5016194;28;20018;-83
2023/01/20 08:48:35;;;;;;;23.90;11.60;;;;;;;;;;5018975;28;20026;-83
2023/01/20 08:51:06;;;;;;;21.45;9.73;;;;;;;;;;5020533;28;20030;-82
2023/01/20 08:53:31;;;;;;;21.90;10.38;;;;;;;;;;5020552;28;20025;-81
2023/01/20 08:55:59;;;;;;;19.02;9.60;;;;;;;;;;5001983;28;20028;-83
2023/01/20 08:58:24;;;;;;;20.80;10.55;;;;;;;;;;5002769;28;20044;-83
2023/01/20 09:00:50;;;;;;;21.98;10.07;;;;;;;;;;5019952;28;20025;-81
2023/01/20 09:03:15;;;;;;;26.10;9.98;;;;;;;;;;5020060;28;20033;-82
2023/01/20 09:05:40;;;;;;;18.17;9.57;;;;;;;;;;5002710;28;20029;-82
2023/01/20 09:08:05;;;;;;;19.80;10.02;;;;;;;;;;5020378;28;20026;-83
2023/01/20 09:10:31;;;;;;;18.42;9.35;;;;;;;;;;5020346;28;20101;-81
2023/01/20 09:12:57;;;;;;;25.00;11.23;;;;;;;;;;5019793;28;20026;-82
2023/01/20 09:15:22;;;;;;;20.15;10.10;;;;;;;;;;5020480;28;20432;-82
2023/01/20 09:17:47;;;;;;;24.42;10.68;;;;;;;;;;5019654;28;20394;-83
2023/01/20 09:20:12;;;;;;;26.55;11.02;;;;;;;;;;5020298;28;20376;-82
2023/01/20 09:22:39;;;;;;;17.42;9.55;;;;;;;;;;5020655;28;20024;-82
2023/01/20 09:25:05;;;;;;;21.45;11.05;;;;;;;;;;5019635;28;20088;-82
2023/01/20 09:27:31;;;;;;;25.73;10.20;;;;;;;;;;5019992;28;20030;-83
2023/01/20 09:29:56;;;;;;;22.02;10.88;;;;;;;;;;5020930;28;20036;-82
2023/01/20 09:32:21;;;;;;;22.67;10.32;;;;;;;;;;5020895;28;20053;-80
2023/01/20 09:34:46;;;;;;;20.88;10.32;;;;;;;;;;5017617;28;20045;-75
2023/01/20 09:46:02;;;;;;;21.20;8.88;;;;;;;;;;5013204;28;20036;-76
2023/01/20 09:54:40;;;;;;;25.92;9.52;;;;;;;;;;5016345;28;20029;-79
2023/01/20 09:57:07;;;;;;;19.65;9.00;;;;;;;;;;5002695;28;20026;-87
2023/01/20 09:59:43;;;;;;;19.88;9.40;;;;;;;;;;5021728;28;20076;-83
2023/01/20 10:02:22;;;;;;;19.42;8.75;;;;;;;;;;5022161;28;20026;-81
2023/01/20 10:04:55;;;;;;;20.50;9.70;;;;;;;;;;5005704;28;20017;-82
2023/01/20 10:07:37;;;;;;;20.38;10.05;;;;;;;;;;5005110;28;20499;-82
2023/01/20 10:10:23;;;;;;;25.17;9.68;;;;;;;;;;5005568;28;20034;-82
2023/01/20 10:13:07;;;;;;;19.92;8.68;;;;;;;;;;5005618;28;20092;-83
2023/01/20 10:15:35;;;;;;;22.55;10.20;;;;;;;;;;5024115;28;20029;-83
2023/01/20 10:18:19;;;;;;;22.55;10.07;;;;;;;;;;5024312;28;20041;-83
2023/01/20 10:20:55;;;;;;;19.77;9.55;;;;;;;;;;5006721;28;20398;-84
2023/01/20 10:23:28;;;;;;;18.73;9.70;;;;;;;;;;5006475;28;20124;-83
2023/01/20 10:26:15;;;;;;;18.13;8.10;;;;;;;;;;5024035;28;20038;-83
2023/01/20 10:28:46;;;;;;;21.55;9.32;;;;;;;;;;5004571;28;20042;-84
2023/01/20 10:31:14;;;;;;;20.23;9.40;;;;;;;;;;5024316;28;20026;-84
2023/01/20 10:33:43;;;;;;;24.05;10.10;;;;;;;;;;5022875;28;20030;-84
2023/01/20 10:36:21;;;;;;;18.55;9.25;;;;;;;;;;5023433;28;20100;-83
2023/01/20 10:39:20;;;;;;;20.65;9.63;;;;;;;;;;5023743;28;20030;-82
2023/01/20 10:41:51;;;;;;;20.13;9.25;;;;;;;;;;5023075;28;20024;-83
2023/01/20 10:44:16;;;;;;;19.13;9.27;;;;;;;;;;5023278;28;20045;-84
2023/01/20 10:47:24;;;;;;;21.50;8.50;;;;;;;;;;5023339;28;20029;-84
2023/01/20 10:50:04;;;;;;;24.75;9.93;;;;;;;;;;5023364;28;20100;-83
2023/01/20 10:52:42;;;;;;;21.20;9.13;;;;;;;;;;5024343;28;20022;-83
2023/01/20 10:55:26;;;;;;;17.50;8.18;;;;;;;;;;5006337;28;20513;-83
2023/01/20 10:58:00;;;;;;;19.23;7.78;;;;;;;;;;5024470;28;20029;-83
2023/01/20 11:00:28;;;;;;;25.42;9.45;;;;;;;;;;5022739;28;20556;-84
2023/01/20 11:02:57;;;;;;;22.20;9.98;;;;;;;;;;5021394;28;20120;-84
2023/01/20 11:05:26;;;;;;;23.92;9.60;;;;;;;;;;5020184;28;20475;-83
2023/01/20 11:07:53;;;;;;;21.02;10.00;;;;;;;;;;5019484;28;20089;-84
2023/01/20 11:10:25;;;;;;;25.42;10.32;;;;;;;;;;5019360;28;20075;-83
2023/01/20 11:12:55;;;;;;;20.75;9.77;;;;;;;;;;5020127;28;20395;-84
2023/01/20 11:15:35;;;;;;;22.52;9.63;;;;;;;;;;5002513;28;20022;-83
2023/01/20 11:18:12;;;;;;;16.17;9.13;;;;;;;;;;5001273;28;20080;-82
2023/01/20 11:20:46;;;;;;;18.70;8.95;;;;;;;;;;5002672;28;20041;-82
2023/01/20 11:23:59;;;;;;;22.88;10.52;;;;;;;;;;5021445;28;20026;-81
2023/01/20 11:26:28;;;;;;;18.65;10.18;;;;;;;;;;5011089;28;20045;-82
2023/01/20 11:29:00;;;;;;;23.02;10.30;;;;;;;;;;5019825;28;20025;-83
2023/01/20 11:31:44;;;;;;;22.00;9.88;;;;;;;;;;5002115;28;20033;-82
2023/01/20 11:34:28;;;;;;;26.75;10.45;;;;;;;;;;5019944;28;20072;-83
2023/01/20 11:37:03;;;;;;;19.95;10.00;;;;;;;;;;5020271;28;20032;-83
2023/01/20 11:39:32;;;;;;;31.40;10.43;;;;;;;;;;5019365;28;20037;-84
2023/01/20 11:42:15;;;;;;;22.77;11.20;;;;;;;;;;5020541;28;20036;-83
2023/01/20 11:44:44;;;;;;;22.52;11.10;;;;;;;;;;5019928;28;20042;-84
2023/01/20 11:47:26;;;;;;;23.23;10.35;;;;;;;;;;5020643;28;20028;-82
2023/01/20 11:50:03;;;;;;;30.38;11.30;;;;;;;;;;5020714;28;20033;-83
2023/01/20 11:52:42;;;;;;;21.27;10.70;;;;;;;;;;5002253;28;20446;-84
2023/01/20 11:55:26;;;;;;;23.65;9.68;;;;;;;;;;5020104;28;20097;-82
2023/01/20 11:58:01;;;;;;;27.23;11.77;;;;;;;;;;5021504;28;20018;-83
2023/01/20 12:00:45;;;;;;;23.20;10.57;;;;;;;;;;5004025;28;20491;-84
2023/01/20 12:03:34;;;;;;;25.15;10.95;;;;;;;;;;5002831;28;20037;-82
2023/01/20 12:06:15;;;;;;;25.30;10.45;;;;;;;;;;5019923;28;20037;-84
2023/01/20 12:08:54;;;;;;;26.65;11.95;;;;;;;;;;5002170;28;20030;-83
2023/01/20 12:11:28;;;;;;;27.60;12.13;;;;;;;;;;5001879;28;20450;-84
2023/01/20 12:16:55;;;;;;;21.17;10.60;;;;;;;;;;5019302;28;20029;-83
2023/01/20 12:19:28;;;;;;;21.45;11.27;;;;;;;;;;5001121;28;20026;-83
2023/01/20 12:21:59;;;;;;;27.17;11.88;;;;;;;;;;5019157;28;20041;-82
2023/01/20 12:25:06;;;;;;;29.15;12.07;;;;;;;;;;5023116;28;20037;-84
2023/01/20 12:27:24;;;;;;;24.60;11.50;;;;;;;;;;5022460;28;20158;-84
2023/01/20 12:29:52;;;;;;;25.87;10.97;;;;;;;;;;5006419;28;20036;-83
2023/01/20 12:32:18;;;;;;;23.45;10.65;;;;;;;;;;5023132;28;20106;-83
2023/01/20 12:34:43;;;;;;;28.35;12.77;;;;;;;;;;5023516;28;20033;-83
2023/01/20 12:37:31;;;;;;;33.33;13.40;;;;;;;;;;5022797;28;20021;-82
2023/01/20 12:40:23;;;;;;;31.42;12.27;;;;;;;;;;5023536;28;20386;-83
2023/01/20 12:43:30;;;;;;;25.50;12.15;;;;;;;;;;5007104;28;20022;-83
2023/01/20 12:46:12;;;;;;;26.40;12.00;;;;;;;;;;4943601;29;20032;-84
2023/01/20 12:48:53;;;;;;;27.67;12.63;;;;;;;;;;5015884;28;20064;-83
2023/01/20 12:51:38;;;;;;;28.45;12.40;;;;;;;;;;5023758;28;20034;-85
2023/01/20 12:54:33;;;;;;;28.52;12.95;;;;;;;;;;5004352;28;20034;-84
2023/01/20 12:57:01;;;;;;;30.65;12.82;;;;;;;;;;5024825;28;20017;-85
2023/01/20 12:59:41;;;;;;;28.25;12.25;;;;;;;;;;5026712;28;20053;-83
2023/01/20 13:02:28;;;;;;;28.80;11.63;;;;;;;;;;5026232;28;20045;-84
2023/01/20 13:05:41;;;;;;;36.10;13.40;;;;;;;;;;5026996;28;20033;-83
2023/01/20 13:08:25;;;;;;;29.50;12.35;;;;;;;;;;5025359;28;20026;-84
2023/01/20 13:11:19;;;;;;;28.63;13.13;;;;;;;;;;5026070;28;20034;-82
2023/01/20 13:13:51;;;;;;;27.02;12.15;;;;;;;;;;5025454;28;20030;-83
2023/01/20 13:16:29;;;;;;;28.77;12.45;;;;;;;;;;5007492;28;20072;-83
2023/01/20 13:19:10;;;;;;;33.72;12.68;;;;;;;;;;5025493;28;20021;-83
2023/01/20 13:21:36;;;;;;;34.85;12.43;;;;;;;;;;5008073;28;20446;-84
2023/01/20 13:24:05;;;;;;;38.15;15.52;;;;;;;;;;5027375;28;20025;-84
2023/01/20 13:26:31;;;;;;;30.23;13.50;;;;;;;;;;5026871;28;20034;-83
2023/01/20 13:28:59;;;;;;;30.05;12.88;;;;;;;;;;5008563;28;20033;-83
2023/01/20 13:31:53;;;;;;;29.25;13.77;;;;;;;;;;5008655;28;20061;-83
2023/01/20 13:34:21;;;;;;;;;;;;;;;;;;5026787;28;20554;-83
2023/01/20 13:37:02;;;;;;;25.35;11.13;;;;;;;;;;5009546;28;20385;-83
2023/01/20 13:39:32;;;;;;;29.25;12.70;;;;;;;;;;5026233;28;20034;-83
2023/01/20 13:41:57;;;;;;;27.98;12.05;;;;;;;;;;5008917;28;20398;-81
2023/01/20 13:44:38;;;;;;;28.05;13.02;;;;;;;;;;5024545;28;20033;-81
2023/01/20 13:47:08;;;;;;;31.63;12.27;;;;;;;;;;5008347;28;20022;-82
2023/01/20 13:49:39;;;;;;;35.30;13.10;;;;;;;;;;5025891;28;20105;-83
2023/01/20 13:52:04;;;;;;;26.52;12.88;;;;;;;;;;5026174;28;20088;-83
2023/01/20 13:54:32;;;;;;;27.42;12.90;;;;;;;;;;5008147;28;20382;-84
2023/01/20 13:57:33;;;;;;;34.00;12.75;;;;;;;;;;5026232;28;20112;-82
2023/01/20 13:59:58;;;;;;;27.88;12.70;;;;;;;;;;5008117;28;20030;-82
2023/01/20 14:02:25;;;;;;;28.83;12.80;;;;;;;;;;5025362;28;20045;-84
2023/01/20 14:04:51;;;;;;;28.60;11.30;;;;;;;;;;5005966;28;20052;-82
2023/01/20 14:07:28;;;;;;;34.15;13.23;;;;;;;;;;5023279;28;20547;-82
2023/01/20 14:09:55;;;;;;;32.45;13.52;;;;;;;;;;5023711;28;20025;-84
2023/01/20 14:12:21;;;;;;;32.08;13.07;;;;;;;;;;5024400;28;20121;-83
2023/01/20 14:14:48;;;;;;;35.63;14.10;;;;;;;;;;5004842;28;20061;-84
2023/01/20 14:17:19;;;;;;;29.27;13.15;;;;;;;;;;5022510;28;20022;-84
2023/01/20 14:19:47;;;;;;;30.13;12.00;;;;;;;;;;5023432;28;20431;-81
2023/01/20 14:22:22;;;;;;;28.35;12.70;;;;;;;;;;5024105;28;20030;-83
2023/01/20 14:24:54;;;;;;;26.85;11.68;;;;;;;;;;5005725;28;20026;-82
2023/01/20 14:27:27;;;;;;;29.25;12.43;;;;;;;;;;5006103;28;20505;-81
2023/01/20 14:29:54;;;;;;;29.98;13.18;;;;;;;;;;5023847;28;20029;-83
2023/01/20 14:32:35;;;;;;;28.75;13.05;;;;;;;;;;5024861;28;20376;-82
2023/01/20 14:35:11;;;;;;;26.60;12.48;;;;;;;;;;5026453;28;20403;-82
2023/01/20 14:37:38;;;;;;;27.08;11.43;;;;;;;;;;5025141;28;20036;-83
2023/01/20 14:40:31;;;;;;;30.45;12.48;;;;;;;;;;5007328;28;20522;-82
2023/01/20 14:43:20;;;;;;;33.25;11.25;;;;;;;;;;5024673;28;20057;-83
2023/01/20 14:45:48;;;;;;;26.10;9.93;;;;;;;;;;5023328;28;20032;-82
2023/01/20 14:48:14;;;;;;;29.98;12.43;;;;;;;;;;5025187;28;20044;-80
2023/01/20 14:50:41;;;;;;;27.20;11.65;;;;;;;;;;5006371;28;20030;-82
2023/01/20 14:53:14;;;;;;;27.20;12.38;;;;;;;;;;5024419;28;20021;-83
2023/01/20 14:55:42;;;;;;;27.90;11.48;;;;;;;;;;5025302;28;20030;-83
2023/01/20 14:58:14;;;;;;;30.38;12.43;;;;;;;;;;5024120;28;20022;-82
2023/01/20 15:00:45;;;;;;;27.48;12.05;;;;;;;;;;5024737;28;20026;-83
2023/01/20 15:03:25;;;;;;;25.45;12.40;;;;;;;;;;5037657;28;20014;-82
2023/01/20 15:06:14;;;;;;;30.30;13.15;;;;;;;;;;5022012;28;20032;-82